sensor_id;sensor_type;location;lat;lon;timestamp;P1;durP1;ratioP1;P2;durP2;ratioP2
11473;SDS011;5793;52.238;13.438;2022-10-16T00:02:22;2.50;;;2.30;;
11473;SDS011;5793;52.238;13.438;2022-10-16T00:04:50;2.20;;;2.00;;
11473;SDS011;5793;52.238;13.438;2022-10-16T00:07:18;2.25;;;2.05;;
11473;SDS011;5793;52.238;13.438;2022-10-16T00:09:45;3.10;;;2.10;;
11473;SDS011;5793;52.238;13.438;2022-10-16T00:12:13;2.45;;;1.85;;
11473;SDS011;5793;52.238;13.438;2022-10-16T00:14:41;2.08;;;1.88;;
11473;SDS011;5793;52.238;13.438;2022-10-16T00:17:11;2.95;;;1.95;;
11473;SDS011;5793;52.238;13.438;2022-10-16T00:19:39;2.15;;;1.90;;
11473;SDS011;5793;52.238;13.438;2022-10-16T00:22:07;1.98;;;1.88;;
11473;SDS011;5793;52.238;13.438;2022-10-16T00:24:34;2.60;;;2.15;;
11473;SDS011;5793;52.238;13.438;2022-10-16T00:27:03;2.78;;;2.20;;
11473;SDS011;5793;52.238;13.438;2022-10-16T00:29:31;2.10;;;1.90;;
11473;SDS011;5793;52.238;13.438;2022-10-16T00:31:58;2.50;;;1.90;;
11473;SDS011;5793;52.238;13.438;2022-10-16T00:34:27;2.38;;;2.00;;
11473;SDS011;5793;52.238;13.438;2022-10-16T00:36:55;1.98;;;1.88;;
11473;SDS011;5793;52.238;13.438;2022-10-16T00:39:23;3.40;;;2.03;;
11473;SDS011;5793;52.238;13.438;2022-10-16T00:41:51;2.60;;;2.25;;
11473;SDS011;5793;52.238;13.438;2022-10-16T00:47:15;5.50;;;2.20;;
11473;SDS011;5793;52.238;13.438;2022-10-16T00:49:48;4.70;;;1.98;;
11473;SDS011;5793;52.238;13.438;2022-10-16T00:52:17;3.30;;;1.77;;
11473;SDS011;5793;52.238;13.438;2022-10-16T00:54:46;3.08;;;1.98;;
11473;SDS011;5793;52.238;13.438;2022-10-16T00:57:16;1.80;;;1.70;;
11473;SDS011;5793;52.238;13.438;2022-10-16T00:59:44;2.05;;;1.80;;
11473;SDS011;5793;52.238;13.438;2022-10-16T01:02:13;4.05;;;2.10;;
11473;SDS011;5793;52.238;13.438;2022-10-16T01:04:43;2.20;;;1.77;;
11473;SDS011;5793;52.238;13.438;2022-10-16T01:07:18;2.33;;;1.90;;
11473;SDS011;5793;52.238;13.438;2022-10-16T01:09:57;2.05;;;1.90;;
11473;SDS011;5793;52.238;13.438;2022-10-16T01:12:36;2.10;;;1.90;;
11473;SDS011;5793;52.238;13.438;2022-10-16T01:15:14;2.00;;;1.90;;
11473;SDS011;5793;52.238;13.438;2022-10-16T01:17:51;1.90;;;1.70;;
11473;SDS011;5793;52.238;13.438;2022-10-16T01:20:26;2.60;;;1.85;;
11473;SDS011;5793;52.238;13.438;2022-10-16T01:22:59;2.92;;;2.00;;
11473;SDS011;5793;52.238;13.438;2022-10-16T01:25:39;2.10;;;1.70;;
11473;SDS011;5793;52.238;13.438;2022-10-16T01:28:39;2.47;;;2.20;;
11473;SDS011;5793;52.238;13.438;2022-10-16T01:31:13;2.25;;;1.88;;
11473;SDS011;5793;52.238;13.438;2022-10-16T01:33:45;2.95;;;1.92;;
11473;SDS011;5793;52.238;13.438;2022-10-16T01:36:17;1.80;;;1.70;;
11473;SDS011;5793;52.238;13.438;2022-10-16T01:38:51;2.80;;;1.77;;
11473;SDS011;5793;52.238;13.438;2022-10-16T01:41:24;2.38;;;1.77;;
11473;SDS011;5793;52.238;13.438;2022-10-16T01:43:59;4.18;;;1.80;;
11473;SDS011;5793;52.238;13.438;2022-10-16T01:46:31;2.20;;;1.90;;
11473;SDS011;5793;52.238;13.438;2022-10-16T01:49:02;2.10;;;1.80;;
11473;SDS011;5793;52.238;13.438;2022-10-16T01:51:32;1.98;;;1.73;;
11473;SDS011;5793;52.238;13.438;2022-10-16T01:54:02;2.88;;;2.08;;
11473;SDS011;5793;52.238;13.438;2022-10-16T01:56:33;2.17;;;1.90;;
11473;SDS011;5793;52.238;13.438;2022-10-16T01:59:04;2.00;;;1.85;;
11473;SDS011;5793;52.238;13.438;2022-10-16T02:01:34;3.55;;;2.17;;
11473;SDS011;5793;52.238;13.438;2022-10-16T02:04:07;2.63;;;2.00;;
11473;SDS011;5793;52.238;13.438;2022-10-16T02:06:38;1.98;;;1.80;;
11473;SDS011;5793;52.238;13.438;2022-10-16T02:09:06;2.38;;;1.90;;
11473;SDS011;5793;52.238;13.438;2022-10-16T02:11:34;2.20;;;2.00;;
11473;SDS011;5793;52.238;13.438;2022-10-16T02:14:03;2.00;;;1.80;;
11473;SDS011;5793;52.238;13.438;2022-10-16T02:16:33;2.20;;;2.00;;
11473;SDS011;5793;52.238;13.438;2022-10-16T02:19:01;2.42;;;2.05;;
11473;SDS011;5793;52.238;13.438;2022-10-16T02:21:32;1.90;;;1.80;;
11473;SDS011;5793;52.238;13.438;2022-10-16T02:24:07;2.17;;;1.98;;
11473;SDS011;5793;52.238;13.438;2022-10-16T02:26:41;2.17;;;1.98;;
11473;SDS011;5793;52.238;13.438;2022-10-16T02:29:14;1.88;;;1.77;;
11473;SDS011;5793;52.238;13.438;2022-10-16T02:31:45;2.78;;;1.85;;
11473;SDS011;5793;52.238;13.438;2022-10-16T02:34:15;2.42;;;1.70;;
11473;SDS011;5793;52.238;13.438;2022-10-16T02:36:45;3.15;;;1.70;;
11473;SDS011;5793;52.238;13.438;2022-10-16T02:39:15;2.03;;;1.70;;
11473;SDS011;5793;52.238;13.438;2022-10-16T02:41:44;1.88;;;1.60;;
11473;SDS011;5793;52.238;13.438;2022-10-16T02:44:14;1.73;;;1.63;;
11473;SDS011;5793;52.238;13.438;2022-10-16T02:46:42;2.97;;;1.80;;
11473;SDS011;5793;52.238;13.438;2022-10-16T02:49:09;2.17;;;1.88;;
11473;SDS011;5793;52.238;13.438;2022-10-16T02:51:37;2.58;;;1.80;;
11473;SDS011;5793;52.238;13.438;2022-10-16T02:54:05;2.97;;;1.80;;
11473;SDS011;5793;52.238;13.438;2022-10-16T02:56:32;3.70;;;1.60;;
11473;SDS011;5793;52.238;13.438;2022-10-16T02:59:00;2.08;;;1.88;;
11473;SDS011;5793;52.238;13.438;2022-10-16T03:01:29;2.08;;;1.67;;
11473;SDS011;5793;52.238;13.438;2022-10-16T03:03:57;2.55;;;1.60;;
11473;SDS011;5793;52.238;13.438;2022-10-16T03:06:25;1.58;;;1.48;;
11473;SDS011;5793;52.238;13.438;2022-10-16T03:08:53;3.42;;;1.60;;
11473;SDS011;5793;52.238;13.438;2022-10-16T03:11:20;1.80;;;1.63;;
11473;SDS011;5793;52.238;13.438;2022-10-16T03:13:48;2.00;;;1.80;;
11473;SDS011;5793;52.238;13.438;2022-10-16T03:16:16;2.00;;;1.60;;
11473;SDS011;5793;52.238;13.438;2022-10-16T03:18:45;1.70;;;1.60;;
11473;SDS011;5793;52.238;13.438;2022-10-16T03:21:15;2.75;;;1.85;;
11473;SDS011;5793;52.238;13.438;2022-10-16T03:23:43;1.80;;;1.70;;
11473;SDS011;5793;52.238;13.438;2022-10-16T03:26:10;1.83;;;1.55;;
11473;SDS011;5793;52.238;13.438;2022-10-16T03:28:38;1.95;;;1.60;;
11473;SDS011;5793;52.238;13.438;2022-10-16T03:31:06;3.33;;;1.65;;
11473;SDS011;5793;52.238;13.438;2022-10-16T03:33:34;1.30;;;1.20;;
11473;SDS011;5793;52.238;13.438;2022-10-16T03:36:03;1.73;;;1.30;;
11473;SDS011;5793;52.238;13.438;2022-10-16T03:38:31;1.75;;;1.65;;
11473;SDS011;5793;52.238;13.438;2022-10-16T03:40:59;2.78;;;1.70;;
11473;SDS011;5793;52.238;13.438;2022-10-16T03:43:26;2.17;;;1.87;;
11473;SDS011;5793;52.238;13.438;2022-10-16T03:45:54;3.28;;;1.67;;
11473;SDS011;5793;52.238;13.438;2022-10-16T03:48:22;1.77;;;1.67;;
11473;SDS011;5793;52.238;13.438;2022-10-16T03:50:50;1.83;;;1.70;;
11473;SDS011;5793;52.238;13.438;2022-10-16T03:53:19;1.90;;;1.70;;
11473;SDS011;5793;52.238;13.438;2022-10-16T03:55:47;2.58;;;1.83;;
11473;SDS011;5793;52.238;13.438;2022-10-16T03:58:15;1.67;;;1.58;;
11473;SDS011;5793;52.238;13.438;2022-10-16T04:00:43;2.63;;;1.70;;
11473;SDS011;5793;52.238;13.438;2022-10-16T04:03:12;2.00;;;1.80;;
11473;SDS011;5793;52.238;13.438;2022-10-16T04:05:40;1.60;;;1.50;;
11473;SDS011;5793;52.238;13.438;2022-10-16T04:08:08;1.67;;;1.52;;
11473;SDS011;5793;52.238;13.438;2022-10-16T04:10:37;3.50;;;1.80;;
11473;SDS011;5793;52.238;13.438;2022-10-16T04:13:04;2.55;;;1.60;;
11473;SDS011;5793;52.238;13.438;2022-10-16T04:15:32;2.95;;;1.60;;
11473;SDS011;5793;52.238;13.438;2022-10-16T04:18:00;1.63;;;1.52;;
11473;SDS011;5793;52.238;13.438;2022-10-16T04:20:28;2.40;;;1.80;;
11473;SDS011;5793;52.238;13.438;2022-10-16T04:22:56;1.67;;;1.55;;
11473;SDS011;5793;52.238;13.438;2022-10-16T04:25:23;3.20;;;1.60;;
11473;SDS011;5793;52.238;13.438;2022-10-16T04:27:53;2.80;;;1.50;;
11473;SDS011;5793;52.238;13.438;2022-10-16T04:30:22;1.52;;;1.42;;
11473;SDS011;5793;52.238;13.438;2022-10-16T04:32:50;1.58;;;1.48;;
11473;SDS011;5793;52.238;13.438;2022-10-16T04:35:19;2.47;;;1.63;;
11473;SDS011;5793;52.238;13.438;2022-10-16T04:37:48;2.67;;;1.63;;
11473;SDS011;5793;52.238;13.438;2022-10-16T04:40:16;1.90;;;1.63;;
11473;SDS011;5793;52.238;13.438;2022-10-16T04:42:44;3.40;;;1.75;;
11473;SDS011;5793;52.238;13.438;2022-10-16T04:45:13;2.58;;;1.50;;
11473;SDS011;5793;52.238;13.438;2022-10-16T04:47:42;2.10;;;1.50;;
11473;SDS011;5793;52.238;13.438;2022-10-16T04:50:10;2.83;;;1.60;;
11473;SDS011;5793;52.238;13.438;2022-10-16T04:52:37;2.07;;;1.50;;
11473;SDS011;5793;52.238;13.438;2022-10-16T04:55:06;1.70;;;1.60;;
11473;SDS011;5793;52.238;13.438;2022-10-16T04:57:34;2.22;;;1.40;;
11473;SDS011;5793;52.238;13.438;2022-10-16T05:00:02;2.00;;;1.50;;
11473;SDS011;5793;52.238;13.438;2022-10-16T05:02:31;2.22;;;2.03;;
11473;SDS011;5793;52.238;13.438;2022-10-16T05:04:59;3.05;;;1.98;;
11473;SDS011;5793;52.238;13.438;2022-10-16T05:07:27;2.03;;;1.83;;
11473;SDS011;5793;52.238;13.438;2022-10-16T05:09:55;3.50;;;2.20;;
11473;SDS011;5793;52.238;13.438;2022-10-16T05:12:22;1.90;;;1.80;;
11473;SDS011;5793;52.238;13.438;2022-10-16T05:14:50;3.93;;;1.80;;
11473;SDS011;5793;52.238;13.438;2022-10-16T05:17:18;1.70;;;1.60;;
11473;SDS011;5793;52.238;13.438;2022-10-16T05:19:47;2.00;;;1.60;;
11473;SDS011;5793;52.238;13.438;2022-10-16T05:22:14;1.93;;;1.57;;
11473;SDS011;5793;52.238;13.438;2022-10-16T05:24:42;1.90;;;1.60;;
11473;SDS011;5793;52.238;13.438;2022-10-16T05:27:10;2.47;;;1.53;;
11473;SDS011;5793;52.238;13.438;2022-10-16T05:29:44;1.70;;;1.60;;
11473;SDS011;5793;52.238;13.438;2022-10-16T05:32:13;1.70;;;1.60;;
11473;SDS011;5793;52.238;13.438;2022-10-16T05:34:41;2.25;;;1.65;;
11473;SDS011;5793;52.238;13.438;2022-10-16T05:37:11;2.17;;;1.70;;
11473;SDS011;5793;52.238;13.438;2022-10-16T05:39:39;1.88;;;1.70;;
11473;SDS011;5793;52.238;13.438;2022-10-16T05:42:07;1.70;;;1.60;;
11473;SDS011;5793;52.238;13.438;2022-10-16T05:44:35;2.42;;;1.98;;
11473;SDS011;5793;52.238;13.438;2022-10-16T05:47:02;1.52;;;1.42;;
11473;SDS011;5793;52.238;13.438;2022-10-16T05:49:30;1.50;;;1.40;;
11473;SDS011;5793;52.238;13.438;2022-10-16T05:52:01;1.70;;;1.60;;
11473;SDS011;5793;52.238;13.438;2022-10-16T05:54:30;1.95;;;1.45;;
11473;SDS011;5793;52.238;13.438;2022-10-16T05:56:58;1.67;;;1.57;;
11473;SDS011;5793;52.238;13.438;2022-10-16T05:59:26;1.80;;;1.60;;
11473;SDS011;5793;52.238;13.438;2022-10-16T06:01:54;5.50;;;1.70;;
11473;SDS011;5793;52.238;13.438;2022-10-16T06:04:21;5.93;;;1.80;;
11473;SDS011;5793;52.238;13.438;2022-10-16T06:06:49;5.30;;;2.00;;
11473;SDS011;5793;52.238;13.438;2022-10-16T06:09:17;2.20;;;1.90;;
11473;SDS011;5793;52.238;13.438;2022-10-16T06:11:46;2.17;;;1.98;;
11473;SDS011;5793;52.238;13.438;2022-10-16T06:14:14;1.83;;;1.60;;
11473;SDS011;5793;52.238;13.438;2022-10-16T06:16:42;2.95;;;1.75;;
11473;SDS011;5793;52.238;13.438;2022-10-16T06:19:09;2.08;;;1.60;;
11473;SDS011;5793;52.238;13.438;2022-10-16T06:21:37;2.10;;;1.85;;
11473;SDS011;5793;52.238;13.438;2022-10-16T06:24:05;2.92;;;1.90;;
11473;SDS011;5793;52.238;13.438;2022-10-16T06:26:33;3.13;;;2.00;;
11473;SDS011;5793;52.238;13.438;2022-10-16T06:29:02;2.20;;;1.70;;
11473;SDS011;5793;52.238;13.438;2022-10-16T06:31:30;1.88;;;1.55;;
11473;SDS011;5793;52.238;13.438;2022-10-16T06:33:59;2.55;;;1.55;;
11473;SDS011;5793;52.238;13.438;2022-10-16T06:36:28;2.10;;;1.80;;
11473;SDS011;5793;52.238;13.438;2022-10-16T06:38:56;1.88;;;1.58;;
11473;SDS011;5793;52.238;13.438;2022-10-16T06:41:23;2.60;;;1.80;;
11473;SDS011;5793;52.238;13.438;2022-10-16T06:43:51;5.20;;;1.77;;
11473;SDS011;5793;52.238;13.438;2022-10-16T06:46:21;2.67;;;1.60;;
11473;SDS011;5793;52.238;13.438;2022-10-16T06:48:50;1.88;;;1.55;;
11473;SDS011;5793;52.238;13.438;2022-10-16T06:51:18;1.83;;;1.65;;
11473;SDS011;5793;52.238;13.438;2022-10-16T06:53:47;1.63;;;1.50;;
11473;SDS011;5793;52.238;13.438;2022-10-16T06:56:29;1.85;;;1.70;;
11473;SDS011;5793;52.238;13.438;2022-10-16T06:58:58;3.53;;;1.60;;
11473;SDS011;5793;52.238;13.438;2022-10-16T07:01:27;2.25;;;1.52;;
11473;SDS011;5793;52.238;13.438;2022-10-16T07:03:56;3.08;;;1.65;;
11473;SDS011;5793;52.238;13.438;2022-10-16T07:06:24;3.08;;;1.58;;
11473;SDS011;5793;52.238;13.438;2022-10-16T07:08:53;2.63;;;1.52;;
11473;SDS011;5793;52.238;13.438;2022-10-16T07:11:22;2.20;;;1.40;;
11473;SDS011;5793;52.238;13.438;2022-10-16T07:13:51;3.47;;;1.35;;
11473;SDS011;5793;52.238;13.438;2022-10-16T07:16:22;3.53;;;1.92;;
11473;SDS011;5793;52.238;13.438;2022-10-16T07:18:52;1.50;;;1.40;;
11473;SDS011;5793;52.238;13.438;2022-10-16T07:21:25;2.40;;;1.42;;
11473;SDS011;5793;52.238;13.438;2022-10-16T07:23:55;1.52;;;1.40;;
11473;SDS011;5793;52.238;13.438;2022-10-16T07:26:25;2.33;;;1.60;;
11473;SDS011;5793;52.238;13.438;2022-10-16T07:28:54;1.67;;;1.48;;
11473;SDS011;5793;52.238;13.438;2022-10-16T07:31:23;6.82;;;1.58;;
11473;SDS011;5793;52.238;13.438;2022-10-16T07:33:52;2.03;;;1.20;;
11473;SDS011;5793;52.238;13.438;2022-10-16T07:36:20;2.03;;;1.58;;
11473;SDS011;5793;52.238;13.438;2022-10-16T07:38:48;2.97;;;1.42;;
11473;SDS011;5793;52.238;13.438;2022-10-16T07:41:22;1.40;;;1.20;;
11473;SDS011;5793;52.238;13.438;2022-10-16T07:43:50;2.17;;;1.55;;
11473;SDS011;5793;52.238;13.438;2022-10-16T07:46:20;3.45;;;1.25;;
11473;SDS011;5793;52.238;13.438;2022-10-16T07:48:50;2.08;;;1.40;;
11473;SDS011;5793;52.238;13.438;2022-10-16T07:51:19;1.77;;;1.13;;
11473;SDS011;5793;52.238;13.438;2022-10-16T07:53:48;1.25;;;1.10;;
11473;SDS011;5793;52.238;13.438;2022-10-16T07:56:17;2.03;;;1.20;;
11473;SDS011;5793;52.238;13.438;2022-10-16T07:58:45;2.45;;;1.20;;
11473;SDS011;5793;52.238;13.438;2022-10-16T08:01:15;1.10;;;1.00;;
11473;SDS011;5793;52.238;13.438;2022-10-16T08:03:45;1.52;;;1.10;;
11473;SDS011;5793;52.238;13.438;2022-10-16T08:06:14;2.97;;;1.10;;
11473;SDS011;5793;52.238;13.438;2022-10-16T08:08:43;1.52;;;1.23;;
11473;SDS011;5793;52.238;13.438;2022-10-16T08:11:11;1.58;;;1.30;;
11473;SDS011;5793;52.238;13.438;2022-10-16T08:13:40;1.77;;;1.30;;
11473;SDS011;5793;52.238;13.438;2022-10-16T08:16:08;1.55;;;1.42;;
11473;SDS011;5793;52.238;13.438;2022-10-16T08:18:36;2.80;;;1.10;;
11473;SDS011;5793;52.238;13.438;2022-10-16T08:21:05;1.35;;;1.10;;
11473;SDS011;5793;52.238;13.438;2022-10-16T08:23:34;2.00;;;1.27;;
11473;SDS011;5793;52.238;13.438;2022-10-16T08:26:04;2.17;;;1.08;;
11473;SDS011;5793;52.238;13.438;2022-10-16T08:28:33;1.35;;;1.00;;
11473;SDS011;5793;52.238;13.438;2022-10-16T08:31:05;1.65;;;0.90;;
11473;SDS011;5793;52.238;13.438;2022-10-16T08:33:33;0.98;;;0.90;;
11473;SDS011;5793;52.238;13.438;2022-10-16T08:36:02;0.90;;;0.90;;
11473;SDS011;5793;52.238;13.438;2022-10-16T08:38:30;1.92;;;1.00;;
11473;SDS011;5793;52.238;13.438;2022-10-16T08:41:02;2.35;;;1.10;;
11473;SDS011;5793;52.238;13.438;2022-10-16T08:43:54;1.42;;;0.90;;
11473;SDS011;5793;52.238;13.438;2022-10-16T08:46:39;3.20;;;0.90;;
11473;SDS011;5793;52.238;13.438;2022-10-16T08:49:16;1.15;;;1.05;;
11473;SDS011;5793;52.238;13.438;2022-10-16T08:51:44;1.63;;;1.02;;
11473;SDS011;5793;52.238;13.438;2022-10-16T08:54:19;1.77;;;1.00;;
11473;SDS011;5793;52.238;13.438;2022-10-16T08:56:55;1.75;;;0.90;;
11473;SDS011;5793;52.238;13.438;2022-10-16T08:59:23;0.93;;;0.93;;
11473;SDS011;5793;52.238;13.438;2022-10-16T09:01:51;2.20;;;1.02;;
11473;SDS011;5793;52.238;13.438;2022-10-16T09:04:30;2.00;;;1.80;;
11473;SDS011;5793;52.238;13.438;2022-10-16T09:07:23;3.63;;;1.10;;
11473;SDS011;5793;52.238;13.438;2022-10-16T09:10:00;2.63;;;1.10;;
11473;SDS011;5793;52.238;13.438;2022-10-16T09:12:46;1.00;;;0.98;;
11473;SDS011;5793;52.238;13.438;2022-10-16T09:15:22;2.20;;;1.00;;
11473;SDS011;5793;52.238;13.438;2022-10-16T09:17:57;1.67;;;1.00;;
11473;SDS011;5793;52.238;13.438;2022-10-16T09:20:30;1.17;;;0.95;;
11473;SDS011;5793;52.238;13.438;2022-10-16T09:23:14;2.33;;;1.17;;
11473;SDS011;5793;52.238;13.438;2022-10-16T09:25:44;2.33;;;1.27;;
11473;SDS011;5793;52.238;13.438;2022-10-16T09:28:18;2.00;;;0.98;;
11473;SDS011;5793;52.238;13.438;2022-10-16T09:30:46;1.23;;;1.10;;
11473;SDS011;5793;52.238;13.438;2022-10-16T09:33:16;1.58;;;1.00;;
11473;SDS011;5793;52.238;13.438;2022-10-16T09:35:47;4.32;;;1.00;;
11473;SDS011;5793;52.238;13.438;2022-10-16T09:38:20;1.15;;;0.85;;
11473;SDS011;5793;52.238;13.438;2022-10-16T09:40:50;1.17;;;1.00;;
11473;SDS011;5793;52.238;13.438;2022-10-16T09:43:31;2.03;;;1.00;;
11473;SDS011;5793;52.238;13.438;2022-10-16T09:46:03;1.70;;;0.95;;
11473;SDS011;5793;52.238;13.438;2022-10-16T09:48:33;2.97;;;1.10;;
11473;SDS011;5793;52.238;13.438;2022-10-16T09:51:05;1.02;;;0.93;;
11473;SDS011;5793;52.238;13.438;2022-10-16T09:53:43;1.10;;;1.00;;
11473;SDS011;5793;52.238;13.438;2022-10-16T09:56:21;1.95;;;1.10;;
11473;SDS011;5793;52.238;13.438;2022-10-16T09:58:52;1.55;;;1.08;;
11473;SDS011;5793;52.238;13.438;2022-10-16T10:01:21;2.10;;;1.10;;
11473;SDS011;5793;52.238;13.438;2022-10-16T10:03:55;2.33;;;1.75;;
11473;SDS011;5793;52.238;13.438;2022-10-16T10:06:27;1.65;;;1.13;;
11473;SDS011;5793;52.238;13.438;2022-10-16T10:08:58;3.28;;;1.30;;
11473;SDS011;5793;52.238;13.438;2022-10-16T10:11:41;1.10;;;1.00;;
11473;SDS011;5793;52.238;13.438;2022-10-16T10:14:20;1.13;;;1.02;;
11473;SDS011;5793;52.238;13.438;2022-10-16T10:16:50;2.17;;;1.13;;
11473;SDS011;5793;52.238;13.438;2022-10-16T10:19:20;1.92;;;1.15;;
11473;SDS011;5793;52.238;13.438;2022-10-16T10:21:52;0.90;;;0.90;;
11473;SDS011;5793;52.238;13.438;2022-10-16T10:24:19;1.35;;;1.20;;
11473;SDS011;5793;52.238;13.438;2022-10-16T10:26:52;2.03;;;0.93;;
11473;SDS011;5793;52.238;13.438;2022-10-16T10:29:31;2.15;;;1.20;;
11473;SDS011;5793;52.238;13.438;2022-10-16T10:32:09;3.60;;;1.10;;
11473;SDS011;5793;52.238;13.438;2022-10-16T10:34:50;1.98;;;1.23;;
11473;SDS011;5793;52.238;13.438;2022-10-16T10:37:31;1.45;;;0.90;;
11473;SDS011;5793;52.238;13.438;2022-10-16T10:40:13;2.15;;;0.98;;
11473;SDS011;5793;52.238;13.438;2022-10-16T10:42:51;3.08;;;0.98;;
11473;SDS011;5793;52.238;13.438;2022-10-16T10:45:27;3.00;;;1.15;;
11473;SDS011;5793;52.238;13.438;2022-10-16T10:48:06;1.10;;;1.00;;
11473;SDS011;5793;52.238;13.438;2022-10-16T10:50:57;4.30;;;1.10;;
11473;SDS011;5793;52.238;13.438;2022-10-16T10:53:31;3.13;;;0.93;;
11473;SDS011;5793;52.238;13.438;2022-10-16T10:56:10;6.88;;;2.78;;
11473;SDS011;5793;52.238;13.438;2022-10-16T10:58:54;1.20;;;1.00;;
11473;SDS011;5793;52.238;13.438;2022-10-16T11:01:46;1.95;;;1.23;;
11473;SDS011;5793;52.238;13.438;2022-10-16T11:04:29;1.88;;;1.30;;
11473;SDS011;5793;52.238;13.438;2022-10-16T11:07:16;1.73;;;0.80;;
11473;SDS011;5793;52.238;13.438;2022-10-16T11:09:49;0.98;;;0.90;;
11473;SDS011;5793;52.238;13.438;2022-10-16T11:12:21;1.10;;;0.90;;
11473;SDS011;5793;52.238;13.438;2022-10-16T11:14:54;1.45;;;0.77;;
11473;SDS011;5793;52.238;13.438;2022-10-16T11:17:30;1.25;;;0.90;;
11473;SDS011;5793;52.238;13.438;2022-10-16T11:20:02;0.90;;;0.82;;
11473;SDS011;5793;52.238;13.438;2022-10-16T11:22:39;2.70;;;0.90;;
11473;SDS011;5793;52.238;13.438;2022-10-16T11:25:13;1.52;;;0.88;;
11473;SDS011;5793;52.238;13.438;2022-10-16T11:27:44;1.98;;;0.80;;
11473;SDS011;5793;52.238;13.438;2022-10-16T11:30:18;1.50;;;1.40;;
11473;SDS011;5793;52.238;13.438;2022-10-16T11:32:54;0.70;;;0.70;;
11473;SDS011;5793;52.238;13.438;2022-10-16T11:35:32;2.05;;;0.80;;
11473;SDS011;5793;52.238;13.438;2022-10-16T11:38:10;1.25;;;0.80;;
11473;SDS011;5793;52.238;13.438;2022-10-16T11:40:43;1.25;;;0.80;;
11473;SDS011;5793;52.238;13.438;2022-10-16T11:43:15;0.77;;;0.70;;
11473;SDS011;5793;52.238;13.438;2022-10-16T11:45:49;0.93;;;0.77;;
11473;SDS011;5793;52.238;13.438;2022-10-16T11:48:24;0.82;;;0.82;;
11473;SDS011;5793;52.238;13.438;2022-10-16T11:51:00;1.15;;;0.80;;
11473;SDS011;5793;52.238;13.438;2022-10-16T11:53:37;0.82;;;0.60;;
11473;SDS011;5793;52.238;13.438;2022-10-16T11:56:12;1.92;;;0.70;;
11473;SDS011;5793;52.238;13.438;2022-10-16T11:58:45;0.90;;;0.80;;
11473;SDS011;5793;52.238;13.438;2022-10-16T12:01:22;0.75;;;0.75;;
11473;SDS011;5793;52.238;13.438;2022-10-16T12:04:02;0.60;;;0.60;;
11473;SDS011;5793;52.238;13.438;2022-10-16T12:06:40;0.95;;;0.88;;
11473;SDS011;5793;52.238;13.438;2022-10-16T12:09:13;0.77;;;0.77;;
11473;SDS011;5793;52.238;13.438;2022-10-16T12:11:46;0.73;;;0.70;;
11473;SDS011;5793;52.238;13.438;2022-10-16T12:14:18;0.50;;;0.50;;
11473;SDS011;5793;52.238;13.438;2022-10-16T12:17:26;2.65;;;1.27;;
11473;SDS011;5793;52.238;13.438;2022-10-16T12:20:17;3.25;;;1.40;;
11473;SDS011;5793;52.238;13.438;2022-10-16T12:22:52;2.13;;;0.77;;
11473;SDS011;5793;52.238;13.438;2022-10-16T12:25:23;0.90;;;0.73;;
11473;SDS011;5793;52.238;13.438;2022-10-16T12:27:57;0.80;;;0.68;;
11473;SDS011;5793;52.238;13.438;2022-10-16T12:30:28;0.73;;;0.70;;
11473;SDS011;5793;52.238;13.438;2022-10-16T12:33:01;2.25;;;0.73;;
11473;SDS011;5793;52.238;13.438;2022-10-16T12:35:32;1.00;;;0.80;;
11473;SDS011;5793;52.238;13.438;2022-10-16T12:38:06;3.13;;;1.00;;
11473;SDS011;5793;52.238;13.438;2022-10-16T12:40:41;0.82;;;0.80;;
11473;SDS011;5793;52.238;13.438;2022-10-16T12:43:11;4.95;;;1.42;;
11473;SDS011;5793;52.238;13.438;2022-10-16T12:46:03;0.98;;;0.77;;
11473;SDS011;5793;52.238;13.438;2022-10-16T12:48:33;1.20;;;1.10;;
11473;SDS011;5793;52.238;13.438;2022-10-16T12:51:23;0.80;;;0.70;;
11473;SDS011;5793;52.238;13.438;2022-10-16T12:53:59;0.80;;;0.80;;
11473;SDS011;5793;52.238;13.438;2022-10-16T12:56:31;2.53;;;0.70;;
11473;SDS011;5793;52.238;13.438;2022-10-16T12:59:10;1.27;;;0.70;;
11473;SDS011;5793;52.238;13.438;2022-10-16T13:01:52;0.90;;;0.75;;
11473;SDS011;5793;52.238;13.438;2022-10-16T13:04:43;1.42;;;0.77;;
11473;SDS011;5793;52.238;13.438;2022-10-16T13:07:28;0.70;;;0.70;;
11473;SDS011;5793;52.238;13.438;2022-10-16T13:10:10;0.88;;;0.68;;
11473;SDS011;5793;52.238;13.438;2022-10-16T13:12:47;1.80;;;0.73;;
11473;SDS011;5793;52.238;13.438;2022-10-16T13:15:34;1.00;;;0.68;;
11473;SDS011;5793;52.238;13.438;2022-10-16T13:18:26;1.65;;;0.90;;
11473;SDS011;5793;52.238;13.438;2022-10-16T13:21:04;2.22;;;0.95;;
11473;SDS011;5793;52.238;13.438;2022-10-16T13:23:46;0.63;;;0.63;;
11473;SDS011;5793;52.238;13.438;2022-10-16T13:26:23;1.63;;;0.93;;
11473;SDS011;5793;52.238;13.438;2022-10-16T13:28:58;1.70;;;0.70;;
11473;SDS011;5793;52.238;13.438;2022-10-16T13:31:27;0.80;;;0.70;;
11473;SDS011;5793;52.238;13.438;2022-10-16T13:33:57;1.00;;;0.90;;
11473;SDS011;5793;52.238;13.438;2022-10-16T13:36:27;1.35;;;0.80;;
11473;SDS011;5793;52.238;13.438;2022-10-16T13:39:03;1.50;;;0.85;;
11473;SDS011;5793;52.238;13.438;2022-10-16T13:41:38;0.85;;;0.80;;
11473;SDS011;5793;52.238;13.438;2022-10-16T13:44:09;0.70;;;0.70;;
11473;SDS011;5793;52.238;13.438;2022-10-16T13:46:41;1.40;;;0.80;;
11473;SDS011;5793;52.238;13.438;2022-10-16T13:49:13;0.90;;;0.80;;
11473;SDS011;5793;52.238;13.438;2022-10-16T13:51:53;2.92;;;0.70;;
11473;SDS011;5793;52.238;13.438;2022-10-16T13:54:23;0.68;;;0.68;;
11473;SDS011;5793;52.238;13.438;2022-10-16T13:56:51;0.82;;;0.80;;
11473;SDS011;5793;52.238;13.438;2022-10-16T13:59:34;1.20;;;1.10;;
11473;SDS011;5793;52.238;13.438;2022-10-16T14:02:05;0.90;;;0.90;;
11473;SDS011;5793;52.238;13.438;2022-10-16T14:04:45;1.77;;;0.98;;
11473;SDS011;5793;52.238;13.438;2022-10-16T14:07:15;1.00;;;0.82;;
11473;SDS011;5793;52.238;13.438;2022-10-16T14:09:50;2.85;;;1.02;;
11473;SDS011;5793;52.238;13.438;2022-10-16T14:12:20;2.20;;;1.17;;
11473;SDS011;5793;52.238;13.438;2022-10-16T14:14:54;1.90;;;1.20;;
11473;SDS011;5793;52.238;13.438;2022-10-16T14:17:24;1.23;;;0.82;;
11473;SDS011;5793;52.238;13.438;2022-10-16T14:19:55;2.17;;;0.80;;
11473;SDS011;5793;52.238;13.438;2022-10-16T14:22:32;3.03;;;1.60;;
11473;SDS011;5793;52.238;13.438;2022-10-16T14:25:13;0.90;;;0.90;;
11473;SDS011;5793;52.238;13.438;2022-10-16T14:27:57;1.08;;;0.85;;
11473;SDS011;5793;52.238;13.438;2022-10-16T14:30:27;1.10;;;0.80;;
11473;SDS011;5793;52.238;13.438;2022-10-16T14:32:57;2.08;;;0.98;;
11473;SDS011;5793;52.238;13.438;2022-10-16T14:35:28;1.20;;;1.08;;
11473;SDS011;5793;52.238;13.438;2022-10-16T14:37:58;2.50;;;0.77;;
11473;SDS011;5793;52.238;13.438;2022-10-16T14:40:29;1.70;;;0.82;;
11473;SDS011;5793;52.238;13.438;2022-10-16T14:42:59;1.00;;;0.73;;
11473;SDS011;5793;52.238;13.438;2022-10-16T14:45:28;2.92;;;0.90;;
11473;SDS011;5793;52.238;13.438;2022-10-16T14:47:58;1.58;;;1.10;;
11473;SDS011;5793;52.238;13.438;2022-10-16T14:50:28;1.30;;;0.80;;
11473;SDS011;5793;52.238;13.438;2022-10-16T14:52:56;0.70;;;0.70;;
11473;SDS011;5793;52.238;13.438;2022-10-16T14:55:25;1.35;;;0.82;;
11473;SDS011;5793;52.238;13.438;2022-10-16T14:57:54;4.00;;;3.60;;
11473;SDS011;5793;52.238;13.438;2022-10-16T15:00:26;1.10;;;0.90;;
11473;SDS011;5793;52.238;13.438;2022-10-16T15:02:54;1.50;;;0.80;;
11473;SDS011;5793;52.238;13.438;2022-10-16T15:05:22;0.88;;;0.70;;
11473;SDS011;5793;52.238;13.438;2022-10-16T15:07:52;1.63;;;0.60;;
11473;SDS011;5793;52.238;13.438;2022-10-16T15:10:22;0.95;;;0.90;;
11473;SDS011;5793;52.238;13.438;2022-10-16T15:12:51;1.05;;;0.63;;
11473;SDS011;5793;52.238;13.438;2022-10-16T15:15:28;0.65;;;0.65;;
11473;SDS011;5793;52.238;13.438;2022-10-16T15:18:00;1.63;;;0.82;;
11473;SDS011;5793;52.238;13.438;2022-10-16T15:20:29;0.60;;;0.60;;